createdAt,value
2018-06-03T00:00:36.200Z,2.77
2018-06-03T00:03:03.866Z,2.20
2018-06-03T00:05:31.521Z,3.20
2018-06-03T00:07:59.194Z,2.97
2018-06-03T00:10:26.849Z,3.10
2018-06-03T00:12:54.517Z,1.77
2018-06-03T00:15:22.176Z,3.07
2018-06-03T00:17:49.835Z,3.37
2018-06-03T00:20:29.421Z,2.33
2018-06-03T00:22:57.933Z,2.63
2018-06-03T00:25:25.602Z,2.60
2018-06-03T00:27:53.294Z,2.57
2018-06-03T00:30:20.956Z,2.77
2018-06-03T00:32:48.592Z,1.90
2018-06-03T00:35:16.246Z,3.90
2018-06-03T00:37:43.912Z,2.17
2018-06-03T00:40:11.602Z,4.17
2018-06-03T00:42:39.263Z,3.37
2018-06-03T00:45:06.926Z,1.87
2018-06-03T00:47:34.588Z,3.30
2018-06-03T00:50:02.247Z,1.90
2018-06-03T00:52:29.908Z,3.30
2018-06-03T00:54:57.567Z,2.20
2018-06-03T00:57:25.609Z,3.60
2018-06-03T00:59:53.273Z,4.07
2018-06-03T01:02:20.932Z,2.37
2018-06-03T01:04:48.598Z,2.00
2018-06-03T01:07:16.256Z,1.70
2018-06-03T01:09:43.922Z,2.60
2018-06-03T01:12:11.614Z,3.33
2018-06-03T01:14:39.270Z,2.03
2018-06-03T01:17:06.931Z,1.73
2018-06-03T01:19:34.593Z,2.77
2018-06-03T01:22:02.254Z,4.07
2018-06-03T01:24:29.918Z,2.20
2018-06-03T01:26:57.575Z,2.60
2018-06-03T01:29:25.488Z,2.57
2018-06-03T01:31:53.933Z,3.23
2018-06-03T01:34:21.597Z,2.30
2018-06-03T01:36:49.248Z,3.43
2018-06-03T01:39:16.913Z,2.33
2018-06-03T01:41:44.575Z,2.33
2018-06-03T01:44:12.315Z,3.43
2018-06-03T01:46:39.976Z,3.27
2018-06-03T01:49:07.637Z,2.03
2018-06-03T01:51:35.322Z,3.73
2018-06-03T01:54:02.970Z,3.50
2018-06-03T01:56:30.627Z,4.20
2018-06-03T01:58:58.285Z,2.67
2018-06-03T02:01:26.424Z,4.10
2018-06-03T02:03:54.840Z,3.03
2018-06-03T02:06:22.502Z,1.93
2018-06-03T02:08:50.161Z,1.93
2018-06-03T02:11:17.861Z,4.30
2018-06-03T02:13:45.518Z,2.83
2018-06-03T02:16:13.169Z,2.63
2018-06-03T02:18:40.836Z,1.53
2018-06-03T02:21:08.501Z,2.07
2018-06-03T02:23:36.157Z,3.27
2018-06-03T02:26:03.805Z,2.17
2018-06-03T02:28:31.460Z,2.43
2018-06-03T02:30:59.147Z,2.50
2018-06-03T02:33:26.858Z,4.53
2018-06-03T02:35:55.286Z,2.97
2018-06-03T02:38:22.947Z,2.40
2018-06-03T02:40:50.615Z,3.93
2018-06-03T02:43:18.281Z,3.30
2018-06-03T02:45:45.934Z,2.20
2018-06-03T02:48:13.595Z,1.77
2018-06-03T02:50:41.269Z,3.47
2018-06-03T02:53:08.934Z,2.53
2018-06-03T02:55:36.593Z,3.00
2018-06-03T02:58:04.294Z,4.27
2018-06-03T03:00:32.729Z,2.03
2018-06-03T03:03:00.421Z,4.53
2018-06-03T03:05:28.085Z,3.53
2018-06-03T03:07:55.749Z,2.83
2018-06-03T03:10:23.484Z,3.00
2018-06-03T03:12:51.141Z,2.63
2018-06-03T03:15:18.802Z,2.10
2018-06-03T03:17:46.464Z,2.47
2018-06-03T03:20:14.231Z,3.57
2018-06-03T03:22:41.893Z,2.30
2018-06-03T03:25:09.554Z,2.20
2018-06-03T03:27:37.214Z,3.17
2018-06-03T03:30:04.876Z,2.10
2018-06-03T03:32:32.533Z,4.67
2018-06-03T03:35:00.197Z,2.07
2018-06-03T03:37:28.045Z,2.13
2018-06-03T03:39:55.738Z,2.27
2018-06-03T03:42:23.396Z,2.90
2018-06-03T03:44:51.053Z,5.37
2018-06-03T03:47:18.715Z,2.97
2018-06-03T03:49:46.380Z,3.00
2018-06-03T03:52:14.037Z,2.97
2018-06-03T03:54:41.700Z,3.03
2018-06-03T03:57:09.368Z,3.77
2018-06-03T03:59:37.020Z,2.20
2018-06-03T04:02:04.683Z,2.43
2018-06-03T04:04:32.348Z,3.50
2018-06-03T04:07:00.062Z,2.70
2018-06-03T04:09:28.157Z,2.53
2018-06-03T04:11:55.857Z,3.40
2018-06-03T04:15:14.306Z,4.90
2018-06-03T04:17:43.499Z,4.00
2018-06-03T04:20:12.737Z,2.40
2018-06-03T04:22:41.972Z,3.57
2018-06-03T04:25:11.190Z,2.57
2018-06-03T04:27:40.363Z,5.37
2018-06-03T04:30:09.626Z,2.47
2018-06-03T04:32:38.823Z,2.97
2018-06-03T04:35:08.026Z,2.90
2018-06-03T04:37:37.222Z,3.50
2018-06-03T04:40:06.969Z,2.63
2018-06-03T04:42:36.199Z,2.03
2018-06-03T04:45:05.421Z,3.07
2018-06-03T04:47:34.593Z,2.50
2018-06-03T04:50:03.827Z,2.23
2018-06-03T04:52:33.044Z,3.27
2018-06-03T04:55:02.255Z,3.53
2018-06-03T04:57:31.418Z,2.60
2018-06-03T05:00:00.613Z,2.33
2018-06-03T05:02:29.809Z,3.93
2018-06-03T05:04:59.074Z,3.47
2018-06-03T05:07:28.252Z,3.93
2018-06-03T05:09:57.513Z,2.93
2018-06-03T05:12:26.763Z,3.53
2018-06-03T05:14:56.013Z,3.00
2018-06-03T05:17:25.220Z,3.87
2018-06-03T05:19:54.428Z,2.60
2018-06-03T05:22:23.628Z,3.93
2018-06-03T05:24:52.884Z,4.10
2018-06-03T05:27:22.096Z,4.97
2018-06-03T05:29:51.361Z,6.00
2018-06-03T05:32:20.644Z,4.93
2018-06-03T05:34:49.915Z,6.03
2018-06-03T05:37:19.148Z,5.90
2018-06-03T05:39:48.374Z,4.87
2018-06-03T05:42:17.709Z,6.87
2018-06-03T05:44:47.369Z,2.53
2018-06-03T05:47:16.649Z,4.03
2018-06-03T05:49:45.880Z,19.10
2018-06-03T05:52:15.387Z,7.87
2018-06-03T05:54:44.644Z,7.33
2018-06-03T05:57:13.889Z,12.23
2018-06-03T05:59:43.153Z,8.70
2018-06-03T06:02:12.516Z,5.43
2018-06-03T06:04:41.838Z,12.33
2018-06-03T06:07:11.101Z,15.07
2018-06-03T06:09:40.385Z,17.90
2018-06-03T06:12:09.715Z,20.67
2018-06-03T06:14:39.007Z,15.07
2018-06-03T06:17:08.755Z,15.93
2018-06-03T06:19:38.041Z,26.47
2018-06-03T06:22:07.547Z,22.37
2018-06-03T06:24:36.295Z,20.13
2018-06-03T06:27:05.686Z,22.60
2018-06-03T06:29:34.945Z,18.20
2018-06-03T06:32:04.364Z,11.70
2018-06-03T06:34:33.628Z,14.10
2018-06-03T06:37:02.948Z,22.50
2018-06-03T06:39:32.193Z,15.70
2018-06-03T06:42:01.525Z,14.07
2018-06-03T06:44:30.816Z,14.40
2018-06-03T06:47:00.151Z,15.37
2018-06-03T06:49:29.609Z,10.13
2018-06-03T06:51:58.967Z,14.53
2018-06-03T06:54:29.337Z,10.10
2018-06-03T06:56:58.535Z,10.03
2018-06-03T06:59:27.796Z,8.77
2018-06-03T07:01:57.187Z,6.17
2018-06-03T07:04:26.475Z,9.33
2018-06-03T07:06:55.719Z,9.00
2018-06-03T07:09:24.976Z,8.90
2018-06-03T07:11:54.460Z,10.33
2018-06-03T07:14:23.743Z,11.17
2018-06-03T07:16:53.078Z,12.20
2018-06-03T07:19:22.893Z,7.13
2018-06-03T07:21:52.493Z,9.73
2018-06-03T07:24:21.817Z,8.10
2018-06-03T07:26:51.195Z,8.53
2018-06-03T07:29:21.288Z,10.50
2018-06-03T07:31:50.652Z,8.23
2018-06-03T07:34:19.901Z,8.47
2018-06-03T07:36:49.203Z,8.20
2018-06-03T07:39:18.450Z,6.80
2018-06-03T07:41:48.041Z,5.87
2018-06-03T07:44:17.292Z,5.90
2018-06-03T07:46:46.595Z,6.27
2018-06-03T07:49:15.909Z,6.37
2018-06-03T07:51:45.226Z,7.60
2018-06-03T07:54:14.968Z,6.47
2018-06-03T18:57:56.097Z,48.73
2018-06-03T19:00:25.405Z,51.90
2018-06-03T19:02:54.850Z,46.80
2018-06-03T19:05:24.648Z,45.27
2018-06-03T19:07:53.963Z,24.03
2018-06-03T19:10:23.359Z,14.90
2018-06-03T19:12:52.678Z,11.10
2018-06-03T19:15:21.941Z,9.27
2018-06-03T19:17:51.245Z,8.43
2018-06-03T19:20:20.557Z,7.33
2018-06-03T19:22:49.929Z,7.97
2018-06-03T19:25:19.225Z,8.10
2018-06-03T19:27:48.516Z,6.93
2018-06-03T19:30:17.913Z,5.17
2018-06-03T19:32:47.194Z,5.57
2018-06-03T19:35:16.521Z,7.23
2018-06-03T19:37:45.819Z,7.70
2018-06-03T19:40:15.159Z,6.47
2018-06-03T19:42:44.481Z,6.93
2018-06-03T19:45:13.801Z,4.50
2018-06-03T19:47:43.097Z,10.23
2018-06-03T19:50:12.475Z,4.63
2018-06-03T19:52:41.764Z,4.30
2018-06-03T19:55:11.048Z,7.47
2018-06-03T19:57:40.329Z,4.77
2018-06-03T20:00:09.837Z,4.83
2018-06-03T20:02:39.454Z,5.47
2018-06-03T20:05:08.776Z,6.17
2018-06-03T20:07:38.069Z,8.40
2018-06-03T20:10:07.367Z,10.80
2018-06-03T20:12:36.569Z,5.20
2018-06-03T20:15:05.777Z,6.43
2018-06-03T20:17:34.989Z,4.30
2018-06-03T20:20:04.268Z,4.23
2018-06-03T20:22:33.483Z,7.33
2018-06-03T20:25:02.660Z,8.20
2018-06-03T20:27:31.859Z,7.67
2018-06-03T20:30:01.053Z,5.03
2018-06-03T20:32:30.297Z,6.60
2018-06-03T20:34:59.904Z,5.93
2018-06-03T20:37:29.131Z,6.90
2018-06-03T20:39:58.360Z,4.57
2018-06-03T20:42:27.579Z,5.57
2018-06-03T20:44:56.765Z,3.77
2018-06-03T20:47:26.343Z,4.37
2018-06-03T20:49:55.530Z,5.33
2018-06-03T20:52:24.737Z,5.87
2018-06-03T20:54:53.952Z,3.80
2018-06-03T20:57:23.150Z,4.47
2018-06-03T20:59:52.348Z,3.80
2018-06-03T21:02:21.570Z,4.50
2018-06-03T21:04:50.828Z,4.33
2018-06-03T21:07:20.048Z,4.53
2018-06-03T21:09:49.249Z,5.40
2018-06-03T21:12:18.452Z,4.77
2018-06-03T21:14:47.645Z,5.07
2018-06-03T21:17:16.851Z,4.33
2018-06-03T21:19:46.049Z,6.80
2018-06-03T21:22:15.236Z,4.03
2018-06-03T21:24:44.438Z,5.00
2018-06-03T21:27:13.637Z,5.87
2018-06-03T21:29:42.831Z,5.53
2018-06-03T21:32:12.034Z,7.43
2018-06-03T21:34:41.231Z,4.77
2018-06-03T21:37:10.424Z,4.57
2018-06-03T21:39:40.062Z,4.13
2018-06-03T21:42:09.333Z,3.70
2018-06-03T21:44:38.527Z,4.13
2018-06-03T21:47:07.729Z,3.80
2018-06-03T21:49:36.902Z,3.43
2018-06-03T21:52:06.170Z,3.80
2018-06-03T21:54:35.468Z,4.03
2018-06-03T21:57:04.668Z,4.23
2018-06-03T21:59:33.893Z,3.80
2018-06-03T22:02:03.128Z,5.50
2018-06-03T22:04:32.364Z,4.37
2018-06-03T22:07:01.562Z,5.53
2018-06-03T22:09:30.816Z,4.87
2018-06-03T22:12:00.185Z,3.70
2018-06-03T22:14:29.361Z,4.97
2018-06-03T22:16:58.561Z,5.97
2018-06-03T22:19:27.747Z,5.00
2018-06-03T22:21:57.092Z,3.80
2018-06-03T22:24:26.257Z,4.27
2018-06-03T22:26:55.442Z,3.63
2018-06-03T22:29:24.653Z,4.80
2018-06-03T22:31:53.909Z,4.83
2018-06-03T22:34:23.115Z,3.80
2018-06-03T22:36:52.352Z,4.53
2018-06-03T22:39:21.556Z,4.67
2018-06-03T22:41:50.956Z,4.27
2018-06-03T22:44:20.299Z,4.47
2018-06-03T22:46:49.499Z,3.90
2018-06-03T22:49:18.702Z,5.70
2018-06-03T22:51:47.904Z,4.70
2018-06-03T22:54:17.093Z,3.57
2018-06-03T22:57:01.122Z,3.90
2018-06-03T22:59:30.307Z,4.07
2018-06-03T23:01:59.545Z,4.27
2018-06-03T23:04:28.739Z,4.30
2018-06-03T23:06:57.953Z,5.87
2018-06-03T23:09:27.144Z,7.00
2018-06-03T23:11:56.463Z,5.90
2018-06-03T23:14:25.684Z,3.67
2018-06-03T23:16:54.882Z,5.50
2018-06-03T23:19:24.073Z,5.13
2018-06-03T23:21:53.335Z,6.33
2018-06-03T23:24:22.525Z,5.90
2018-06-03T23:26:51.721Z,5.27
2018-06-03T23:29:20.903Z,5.10
2018-06-03T23:31:50.126Z,5.40
2018-06-03T23:34:19.317Z,4.33
2018-06-03T23:36:48.516Z,6.23
2018-06-03T23:39:17.693Z,4.43
2018-06-03T23:41:46.926Z,4.23
2018-06-03T23:44:16.217Z,3.80
2018-06-03T23:46:45.459Z,4.30
2018-06-03T23:49:14.658Z,3.93
2018-06-03T23:51:43.913Z,5.03
2018-06-03T23:54:19.362Z,5.73
2018-06-03T23:56:48.563Z,3.70
2018-06-03T23:59:17.796Z,6.90
